Ana Sayfa
METAR-TAF:

METAR-TAF

Havaalanları :

Orange County Airport

Orange, Virginia, Amerika Birleşik Devletleri

Enlem: 38-14-50N, Boylam: 078-02-44W, yükseklik: 142 m

Güncel hava durumu gözlemi

Rapor saat 07:55 UTC de 15 dakika önce yapıldı.
Rüzgar doğu/güneydoğudan 5 kt
Sıcaklık 15°C
Nem 94%
Basınç 1022 hPa
Görüş mesafesi: 16.1 km
1600 ft yükseklikte çok bulutlu

METAR: KOMH 250755Z AUTO 11005KT 10SM OVC016 15/14 A3018 RMK AO2

Saat: 04:10 (08:10 UTC)


TAF: eksik

4.000'den fazla havaalanı için hava durumu gözlemleri ve tahminleri (METAR ve TAF raporları).

Kullanılabilir istasyonlar harita üzerinde sarı ve kırmızı noktalarla gösterilir.

İstasyonun adını görmek için fareyi noktanın üzerinde gezdirin.

Sonrasında hava gözlem ve tahminlerini görmek için tıklayın.

Haritayı değiştirmek için: yaklaştırmak için siyah artı işaretli yeşil düğmeye ve uzaklaştırmak için de eksi işaretli düğmeye hızla tıklayın; bitişik haritalar için yeşil okları kullanın.


METAR-TAF: